sensor_id;sensor_type;location;lat;lon;timestamp;pressure;altitude;pressure_sealevel;temperature;humidity
69842;BME280;57138;51.326;-0.068;2023-01-26T00:01:10;100943.34;;;3.87;100.00
69842;BME280;57138;51.326;-0.068;2023-01-26T00:03:36;100944.16;;;3.87;100.00
69842;BME280;57138;51.326;-0.068;2023-01-26T00:06:03;100934.91;;;3.82;100.00
69842;BME280;57138;51.326;-0.068;2023-01-26T00:08:29;100927.72;;;3.84;100.00
69842;BME280;57138;51.326;-0.068;2023-01-26T00:10:55;100940.84;;;3.74;100.00
69842;BME280;57138;51.326;-0.068;2023-01-26T00:13:21;100931.75;;;3.67;100.00
69842;BME280;57138;51.326;-0.068;2023-01-26T00:15:47;100936.09;;;3.68;100.00
69842;BME280;57138;51.326;-0.068;2023-01-26T00:18:13;100952.66;;;3.70;100.00
69842;BME280;57138;51.326;-0.068;2023-01-26T00:20:39;100940.63;;;3.66;100.00
69842;BME280;57138;51.326;-0.068;2023-01-26T00:23:04;100936.84;;;3.58;100.00
69842;BME280;57138;51.326;-0.068;2023-01-26T00:25:30;100928.53;;;3.52;100.00
69842;BME280;57138;51.326;-0.068;2023-01-26T00:27:55;100944.78;;;3.58;100.00
69842;BME280;57138;51.326;-0.068;2023-01-26T00:30:22;100942.38;;;3.55;100.00
69842;BME280;57138;51.326;-0.068;2023-01-26T00:32:48;100943.22;;;3.56;100.00
69842;BME280;57138;51.326;-0.068;2023-01-26T00:35:13;100948.13;;;3.60;100.00
69842;BME280;57138;51.326;-0.068;2023-01-26T00:37:42;100943.34;;;3.54;100.00
69842;BME280;57138;51.326;-0.068;2023-01-26T00:40:08;100931.06;;;3.53;100.00
69842;BME280;57138;51.326;-0.068;2023-01-26T00:42:34;100941.88;;;3.62;100.00
69842;BME280;57138;51.326;-0.068;2023-01-26T00:45:00;100929.03;;;3.57;100.00
69842;BME280;57138;51.326;-0.068;2023-01-26T00:47:25;100931.69;;;3.57;100.00
69842;BME280;57138;51.326;-0.068;2023-01-26T00:49:50;100933.94;;;3.62;100.00
69842;BME280;57138;51.326;-0.068;2023-01-26T00:52:16;100934.31;;;3.57;100.00
69842;BME280;57138;51.326;-0.068;2023-01-26T00:54:41;100938.97;;;3.65;100.00
69842;BME280;57138;51.326;-0.068;2023-01-26T00:57:07;100938.97;;;3.65;100.00
69842;BME280;57138;51.326;-0.068;2023-01-26T00:59:33;100947.88;;;3.64;100.00
69842;BME280;57138;51.326;-0.068;2023-01-26T01:01:58;100952.06;;;3.66;100.00
69842;BME280;57138;51.326;-0.068;2023-01-26T01:04:26;100952.31;;;3.63;100.00
69842;BME280;57138;51.326;-0.068;2023-01-26T01:06:54;100947.41;;;3.58;100.00
69842;BME280;57138;51.326;-0.068;2023-01-26T01:09:19;100948.38;;;3.57;100.00
69842;BME280;57138;51.326;-0.068;2023-01-26T01:11:45;100948.38;;;3.57;100.00
69842;BME280;57138;51.326;-0.068;2023-01-26T01:14:12;100951.13;;;3.56;100.00
69842;BME280;57138;51.326;-0.068;2023-01-26T01:16:37;100956.31;;;3.57;100.00
69842;BME280;57138;51.326;-0.068;2023-01-26T01:19:03;100951.97;;;3.56;100.00
69842;BME280;57138;51.326;-0.068;2023-01-26T01:21:29;100945.41;;;3.51;100.00
69842;BME280;57138;51.326;-0.068;2023-01-26T01:23:56;100956.81;;;3.51;100.00
69842;BME280;57138;51.326;-0.068;2023-01-26T01:26:21;100951.06;;;3.46;100.00
69842;BME280;57138;51.326;-0.068;2023-01-26T01:28:47;100956.09;;;3.49;100.00
69842;BME280;57138;51.326;-0.068;2023-01-26T01:31:14;100963.28;;;3.47;100.00
69842;BME280;57138;51.326;-0.068;2023-01-26T01:33:41;100970.50;;;3.45;100.00
69842;BME280;57138;51.326;-0.068;2023-01-26T01:36:10;100963.53;;;3.44;100.00
69842;BME280;57138;51.326;-0.068;2023-01-26T01:38:36;100954.19;;;3.40;100.00
69842;BME280;57138;51.326;-0.068;2023-01-26T01:41:03;100959.47;;;3.40;100.00
69842;BME280;57138;51.326;-0.068;2023-01-26T01:43:29;100969.06;;;3.41;100.00
69842;BME280;57138;51.326;-0.068;2023-01-26T01:45:55;100959.09;;;3.33;100.00
69842;BME280;57138;51.326;-0.068;2023-01-26T01:48:27;100964.03;;;3.38;100.00
69842;BME280;57138;51.326;-0.068;2023-01-26T01:51:02;100962.38;;;3.37;100.00
69842;BME280;57138;51.326;-0.068;2023-01-26T01:53:32;100965.13;;;3.35;100.00
69842;BME280;57138;51.326;-0.068;2023-01-26T01:56:03;100949.41;;;3.22;100.00
69842;BME280;57138;51.326;-0.068;2023-01-26T01:58:32;100970.06;;;3.29;100.00
69842;BME280;57138;51.326;-0.068;2023-01-26T02:01:01;100970.28;;;3.26;100.00
69842;BME280;57138;51.326;-0.068;2023-01-26T02:03:28;100958.44;;;3.20;100.00
69842;BME280;57138;51.326;-0.068;2023-01-26T02:05:59;100979.09;;;3.26;100.00
69842;BME280;57138;51.326;-0.068;2023-01-26T02:08:30;100976.69;;;3.23;100.00
69842;BME280;57138;51.326;-0.068;2023-01-26T02:10:59;100973.31;;;3.21;100.00
69842;BME280;57138;51.326;-0.068;2023-01-26T02:13:27;100965.03;;;3.14;100.00
69842;BME280;57138;51.326;-0.068;2023-01-26T02:15:58;100970.69;;;3.10;100.00
69842;BME280;57138;51.326;-0.068;2023-01-26T02:18:26;100979.22;;;3.13;100.00
69842;BME280;57138;51.326;-0.068;2023-01-26T02:20:58;100960.97;;;3.10;100.00
69842;BME280;57138;51.326;-0.068;2023-01-26T02:26:20;100968.16;;;3.08;100.00
69842;BME280;57138;51.326;-0.068;2023-01-26T02:28:47;100970.56;;;3.00;100.00
69842;BME280;57138;51.326;-0.068;2023-01-26T02:31:14;100978.50;;;3.00;100.00
69842;BME280;57138;51.326;-0.068;2023-01-26T02:33:43;100960.38;;;2.95;100.00
69842;BME280;57138;51.326;-0.068;2023-01-26T02:36:35;100969.13;;;2.96;100.00
69842;BME280;57138;51.326;-0.068;2023-01-26T02:41:38;100965.53;;;2.97;100.00
69842;BME280;57138;51.326;-0.068;2023-01-26T02:44:23;100967.94;;;3.00;100.00
69842;BME280;57138;51.326;-0.068;2023-01-26T02:46:49;100972.50;;;2.98;100.00
69842;BME280;57138;51.326;-0.068;2023-01-26T02:49:15;100968.06;;;2.98;100.00
69842;BME280;57138;51.326;-0.068;2023-01-26T02:51:59;100981.16;;;3.00;100.00
69842;BME280;57138;51.326;-0.068;2023-01-26T02:54:24;100975.84;;;3.00;100.00
69842;BME280;57138;51.326;-0.068;2023-01-26T02:57:18;100975.97;;;2.98;100.00
69842;BME280;57138;51.326;-0.068;2023-01-26T02:59:44;100973.34;;;2.98;100.00
69842;BME280;57138;51.326;-0.068;2023-01-26T03:02:09;100962.66;;;2.88;100.00
69842;BME280;57138;51.326;-0.068;2023-01-26T03:04:35;100972.47;;;2.86;100.00
69842;BME280;57138;51.326;-0.068;2023-01-26T03:07:01;100987.38;;;2.87;100.00
69842;BME280;57138;51.326;-0.068;2023-01-26T03:09:26;100983.28;;;2.83;100.00
69842;BME280;57138;51.326;-0.068;2023-01-26T03:11:52;100969.97;;;2.74;100.00
69842;BME280;57138;51.326;-0.068;2023-01-26T03:14:17;100985.56;;;2.77;100.00
69842;BME280;57138;51.326;-0.068;2023-01-26T03:16:43;100976.56;;;2.68;100.00
69842;BME280;57138;51.326;-0.068;2023-01-26T03:19:13;100975.97;;;2.64;100.00
69842;BME280;57138;51.326;-0.068;2023-01-26T03:21:57;100981.94;;;2.55;99.83
69842;BME280;57138;51.326;-0.068;2023-01-26T03:24:55;100973.53;;;2.50;100.00
69842;BME280;57138;51.326;-0.068;2023-01-26T03:27:44;100977.38;;;2.46;100.00
69842;BME280;57138;51.326;-0.068;2023-01-26T03:30:11;100978.69;;;2.40;100.00
69842;BME280;57138;51.326;-0.068;2023-01-26T03:32:36;100983.97;;;2.40;100.00
69842;BME280;57138;51.326;-0.068;2023-01-26T03:35:02;100980.09;;;2.33;100.00
69842;BME280;57138;51.326;-0.068;2023-01-26T03:37:28;100987.31;;;2.31;100.00
69842;BME280;57138;51.326;-0.068;2023-01-26T03:39:58;100969.53;;;2.22;100.00
69842;BME280;57138;51.326;-0.068;2023-01-26T03:42:42;100975.28;;;2.15;100.00
69842;BME280;57138;51.326;-0.068;2023-01-26T03:45:26;100994.44;;;2.18;99.96
69842;BME280;57138;51.326;-0.068;2023-01-26T03:48:11;100987.72;;;2.13;100.00
69842;BME280;57138;51.326;-0.068;2023-01-26T03:50:55;100989.88;;;2.08;100.00
69842;BME280;57138;51.326;-0.068;2023-01-26T03:53:41;100988.19;;;2.07;100.00
69842;BME280;57138;51.326;-0.068;2023-01-26T03:56:26;100987.56;;;2.04;99.67
69842;BME280;57138;51.326;-0.068;2023-01-26T03:58:57;100994.16;;;1.98;100.00
69842;BME280;57138;51.326;-0.068;2023-01-26T04:01:33;100987.41;;;1.94;100.00
69842;BME280;57138;51.326;-0.068;2023-01-26T04:03:59;100991.63;;;1.96;100.00
69842;BME280;57138;51.326;-0.068;2023-01-26T04:06:44;101001.22;;;1.97;100.00
69842;BME280;57138;51.326;-0.068;2023-01-26T04:09:29;100983.31;;;1.90;100.00
69842;BME280;57138;51.326;-0.068;2023-01-26T04:11:55;100997.13;;;1.93;100.00
69842;BME280;57138;51.326;-0.068;2023-01-26T04:14:20;100980.19;;;1.85;100.00
69842;BME280;57138;51.326;-0.068;2023-01-26T04:17:04;100991.44;;;1.87;100.00
69842;BME280;57138;51.326;-0.068;2023-01-26T04:19:49;100996.94;;;1.84;100.00
69842;BME280;57138;51.326;-0.068;2023-01-26T04:22:35;101002.22;;;1.84;100.00
69842;BME280;57138;51.326;-0.068;2023-01-26T04:25:06;100998.03;;;1.81;100.00
69842;BME280;57138;51.326;-0.068;2023-01-26T04:27:32;100991.19;;;1.78;100.00
69842;BME280;57138;51.326;-0.068;2023-01-26T04:29:59;101007.72;;;1.80;100.00
69842;BME280;57138;51.326;-0.068;2023-01-26T04:32:25;100992.13;;;1.77;100.00
69842;BME280;57138;51.326;-0.068;2023-01-26T04:34:51;101002.66;;;1.77;100.00
69842;BME280;57138;51.326;-0.068;2023-01-26T04:37:17;101004.59;;;1.75;100.00
69842;BME280;57138;51.326;-0.068;2023-01-26T04:39:42;101003.97;;;1.72;100.00
69842;BME280;57138;51.326;-0.068;2023-01-26T04:42:07;101024.75;;;1.76;100.00
69842;BME280;57138;51.326;-0.068;2023-01-26T04:44:33;101015.25;;;1.74;100.00
69842;BME280;57138;51.326;-0.068;2023-01-26T04:46:58;101024.22;;;1.71;100.00
69842;BME280;57138;51.326;-0.068;2023-01-26T04:49:24;101021.56;;;1.71;99.98
69842;BME280;57138;51.326;-0.068;2023-01-26T04:51:49;101026.13;;;1.69;100.00
69842;BME280;57138;51.326;-0.068;2023-01-26T04:54:14;101020.97;;;1.68;100.00
69842;BME280;57138;51.326;-0.068;2023-01-26T04:56:40;101009.06;;;1.62;100.00
69842;BME280;57138;51.326;-0.068;2023-01-26T04:59:06;101031.19;;;1.72;100.00
69842;BME280;57138;51.326;-0.068;2023-01-26T05:01:33;101018.94;;;1.71;100.00
69842;BME280;57138;51.326;-0.068;2023-01-26T05:04:00;101024.75;;;1.76;100.00
69842;BME280;57138;51.326;-0.068;2023-01-26T05:06:25;101025.69;;;1.75;100.00
69842;BME280;57138;51.326;-0.068;2023-01-26T05:08:51;101021.88;;;1.79;100.00
69842;BME280;57138;51.326;-0.068;2023-01-26T05:11:17;101009.53;;;1.80;100.00
69842;BME280;57138;51.326;-0.068;2023-01-26T05:13:42;101007.38;;;1.85;100.00
69842;BME280;57138;51.326;-0.068;2023-01-26T05:16:08;101009.19;;;1.85;100.00
69842;BME280;57138;51.326;-0.068;2023-01-26T05:18:33;101017.81;;;1.87;100.00
69842;BME280;57138;51.326;-0.068;2023-01-26T05:20:59;101015.94;;;1.89;100.00
69842;BME280;57138;51.326;-0.068;2023-01-26T05:23:24;101010.53;;;1.90;100.00
69842;BME280;57138;51.326;-0.068;2023-01-26T05:25:50;101003.47;;;1.91;100.00
69842;BME280;57138;51.326;-0.068;2023-01-26T05:28:15;101006.59;;;1.96;100.00
69842;BME280;57138;51.326;-0.068;2023-01-26T05:30:41;101012.50;;;2.00;100.00
69842;BME280;57138;51.326;-0.068;2023-01-26T05:33:07;101006.16;;;2.02;100.00
69842;BME280;57138;51.326;-0.068;2023-01-26T05:35:34;101017.94;;;2.09;100.00
69842;BME280;57138;51.326;-0.068;2023-01-26T05:37:59;101010.97;;;2.08;100.00
69842;BME280;57138;51.326;-0.068;2023-01-26T05:40:25;101008.09;;;2.11;100.00
69842;BME280;57138;51.326;-0.068;2023-01-26T05:42:51;101014.09;;;2.13;100.00
69842;BME280;57138;51.326;-0.068;2023-01-26T05:45:17;101027.81;;;2.19;100.00
69842;BME280;57138;51.326;-0.068;2023-01-26T05:47:44;101022.06;;;2.25;100.00
69842;BME280;57138;51.326;-0.068;2023-01-26T05:50:11;101002.03;;;2.22;100.00
69842;BME280;57138;51.326;-0.068;2023-01-26T05:52:37;101013.81;;;2.29;100.00
69842;BME280;57138;51.326;-0.068;2023-01-26T05:55:04;101005.16;;;2.27;100.00
69842;BME280;57138;51.326;-0.068;2023-01-26T05:57:30;101020.41;;;2.35;100.00
69842;BME280;57138;51.326;-0.068;2023-01-26T05:59:55;101008.91;;;2.36;100.00
69842;BME280;57138;51.326;-0.068;2023-01-26T06:02:21;101021.88;;;2.39;100.00
69842;BME280;57138;51.326;-0.068;2023-01-26T06:04:46;101010.59;;;2.37;100.00
69842;BME280;57138;51.326;-0.068;2023-01-26T06:07:12;101027.63;;;2.44;100.00
69842;BME280;57138;51.326;-0.068;2023-01-26T06:09:38;101026.69;;;2.45;100.00
69842;BME280;57138;51.326;-0.068;2023-01-26T06:12:05;101031.97;;;2.45;100.00
69842;BME280;57138;51.326;-0.068;2023-01-26T06:14:31;101034.16;;;2.51;100.00
69842;BME280;57138;51.326;-0.068;2023-01-26T06:16:56;101028.97;;;2.50;100.00
69842;BME280;57138;51.326;-0.068;2023-01-26T06:19:21;101034.75;;;2.55;100.00
69842;BME280;57138;51.326;-0.068;2023-01-26T06:21:47;101042.53;;;2.57;100.00
69842;BME280;57138;51.326;-0.068;2023-01-26T06:24:12;101038.13;;;2.57;100.00
69842;BME280;57138;51.326;-0.068;2023-01-26T06:26:38;101032.00;;;2.57;100.00
69842;BME280;57138;51.326;-0.068;2023-01-26T06:29:03;101030.31;;;2.56;100.00
69842;BME280;57138;51.326;-0.068;2023-01-26T06:31:29;101044.97;;;2.60;100.00
69842;BME280;57138;51.326;-0.068;2023-01-26T06:33:55;101054.34;;;2.64;100.00
69842;BME280;57138;51.326;-0.068;2023-01-26T06:36:20;101042.31;;;2.60;100.00
69842;BME280;57138;51.326;-0.068;2023-01-26T06:38:50;101042.31;;;2.60;100.00
69842;BME280;57138;51.326;-0.068;2023-01-26T06:41:17;101057.94;;;2.63;100.00
69842;BME280;57138;51.326;-0.068;2023-01-26T06:43:45;101062.84;;;2.67;100.00
69842;BME280;57138;51.326;-0.068;2023-01-26T06:46:10;101045.94;;;2.59;100.00
69842;BME280;57138;51.326;-0.068;2023-01-26T06:48:36;101068.25;;;2.66;100.00
69842;BME280;57138;51.326;-0.068;2023-01-26T06:54:09;101080.50;;;2.67;100.00
69842;BME280;57138;51.326;-0.068;2023-01-26T06:56:34;101090.84;;;2.70;100.00
69842;BME280;57138;51.326;-0.068;2023-01-26T06:59:00;101084.94;;;2.66;100.00
69842;BME280;57138;51.326;-0.068;2023-01-26T07:01:25;101086.84;;;2.64;100.00
69842;BME280;57138;51.326;-0.068;2023-01-26T07:03:52;101105.81;;;2.69;100.00
69842;BME280;57138;51.326;-0.068;2023-01-26T07:06:18;101109.31;;;2.70;100.00
69842;BME280;57138;51.326;-0.068;2023-01-26T07:08:44;101100.66;;;2.68;100.00
69842;BME280;57138;51.326;-0.068;2023-01-26T07:11:11;101118.91;;;2.71;100.00
69842;BME280;57138;51.326;-0.068;2023-01-26T07:13:37;101106.44;;;2.73;100.00
69842;BME280;57138;51.326;-0.068;2023-01-26T07:16:05;101116.28;;;2.71;100.00
69842;BME280;57138;51.326;-0.068;2023-01-26T07:18:31;101116.38;;;2.69;100.00
69842;BME280;57138;51.326;-0.068;2023-01-26T07:21:14;101108.56;;;2.68;100.00
69842;BME280;57138;51.326;-0.068;2023-01-26T07:23:40;101112.19;;;2.67;100.00
69842;BME280;57138;51.326;-0.068;2023-01-26T07:26:06;101122.75;;;2.67;100.00
69842;BME280;57138;51.326;-0.068;2023-01-26T07:28:32;101126.13;;;2.69;100.00
69842;BME280;57138;51.326;-0.068;2023-01-26T07:31:03;101126.22;;;2.67;100.00
69842;BME280;57138;51.326;-0.068;2023-01-26T07:33:30;101133.09;;;2.70;100.00
69842;BME280;57138;51.326;-0.068;2023-01-26T07:35:56;101126.56;;;2.63;100.00
69842;BME280;57138;51.326;-0.068;2023-01-26T07:38:26;101116.72;;;2.65;100.00
69842;BME280;57138;51.326;-0.068;2023-01-26T07:40:53;101111.34;;;2.66;100.00
69842;BME280;57138;51.326;-0.068;2023-01-26T07:43:19;101116.88;;;2.63;100.00
69842;BME280;57138;51.326;-0.068;2023-01-26T07:45:45;101106.44;;;2.62;100.00
69842;BME280;57138;51.326;-0.068;2023-01-26T07:48:11;101124.19;;;2.71;99.90
69842;BME280;57138;51.326;-0.068;2023-01-26T07:50:38;101111.59;;;2.63;100.00
69842;BME280;57138;51.326;-0.068;2023-01-26T07:53:03;101093.47;;;2.59;100.00
69842;BME280;57138;51.326;-0.068;2023-01-26T07:55:29;101086.03;;;2.64;100.00
69842;BME280;57138;51.326;-0.068;2023-01-26T07:57:54;101114.50;;;2.72;100.00
69842;BME280;57138;51.326;-0.068;2023-01-26T08:00:22;101111.59;;;2.63;100.00
69842;BME280;57138;51.326;-0.068;2023-01-26T08:02:50;101139.22;;;2.70;100.00
69842;BME280;57138;51.326;-0.068;2023-01-26T08:05:16;101145.31;;;2.71;100.00
69842;BME280;57138;51.326;-0.068;2023-01-26T08:07:41;101122.75;;;2.67;100.00
69842;BME280;57138;51.326;-0.068;2023-01-26T08:10:07;101132.00;;;2.73;100.00
69842;BME280;57138;51.326;-0.068;2023-01-26T08:12:35;101133.59;;;2.75;99.83
69842;BME280;57138;51.326;-0.068;2023-01-26T08:15:01;101144.88;;;2.77;100.00
69842;BME280;57138;51.326;-0.068;2023-01-26T08:17:28;101137.06;;;2.76;100.00
69842;BME280;57138;51.326;-0.068;2023-01-26T08:19:53;101134.41;;;2.76;100.00
69842;BME280;57138;51.326;-0.068;2023-01-26T08:22:19;101127.13;;;2.79;100.00
69842;BME280;57138;51.326;-0.068;2023-01-26T08:24:47;101126.38;;;2.77;100.00
69842;BME280;57138;51.326;-0.068;2023-01-26T08:27:13;101126.16;;;2.80;100.00
69842;BME280;57138;51.326;-0.068;2023-01-26T08:29:40;101125.44;;;2.78;100.00
69842;BME280;57138;51.326;-0.068;2023-01-26T08:32:06;101140.59;;;2.87;100.00
69842;BME280;57138;51.326;-0.068;2023-01-26T08:34:33;101137.72;;;2.91;100.00
69842;BME280;57138;51.326;-0.068;2023-01-26T08:36:59;101122.31;;;2.84;99.98
69842;BME280;57138;51.326;-0.068;2023-01-26T08:39:24;101118.63;;;2.87;99.94
69842;BME280;57138;51.326;-0.068;2023-01-26T08:41:50;101126.31;;;2.90;100.00
69842;BME280;57138;51.326;-0.068;2023-01-26T08:44:15;101132.91;;;2.96;100.00
69842;BME280;57138;51.326;-0.068;2023-01-26T08:46:42;101146.63;;;3.01;100.00
69842;BME280;57138;51.326;-0.068;2023-01-26T08:49:08;101137.00;;;3.00;99.92
69842;BME280;57138;51.326;-0.068;2023-01-26T08:51:33;101139.31;;;3.04;99.83
69842;BME280;57138;51.326;-0.068;2023-01-26T08:53:59;101123.81;;;3.00;100.00
69842;BME280;57138;51.326;-0.068;2023-01-26T08:56:24;101143.41;;;3.09;100.00
69842;BME280;57138;51.326;-0.068;2023-01-26T08:58:50;101135.72;;;3.05;99.54
69842;BME280;57138;51.326;-0.068;2023-01-26T09:01:16;101134.13;;;3.03;99.81
69842;BME280;57138;51.326;-0.068;2023-01-26T09:03:42;101139.19;;;3.06;100.00
69842;BME280;57138;51.326;-0.068;2023-01-26T09:06:09;101135.84;;;3.04;100.00
69842;BME280;57138;51.326;-0.068;2023-01-26T09:08:36;101136.31;;;3.09;100.00
69842;BME280;57138;51.326;-0.068;2023-01-26T09:11:05;101146.41;;;3.15;100.00
69842;BME280;57138;51.326;-0.068;2023-01-26T09:13:30;101134.16;;;3.14;100.00
69842;BME280;57138;51.326;-0.068;2023-01-26T09:15:56;101148.34;;;3.24;100.00
69842;BME280;57138;51.326;-0.068;2023-01-26T09:18:22;101137.28;;;3.19;100.00
69842;BME280;57138;51.326;-0.068;2023-01-26T09:20:48;101145.84;;;3.23;100.00
69842;BME280;57138;51.326;-0.068;2023-01-26T09:23:15;101157.72;;;3.29;100.00
69842;BME280;57138;51.326;-0.068;2023-01-26T09:25:43;101145.94;;;3.21;99.99
69842;BME280;57138;51.326;-0.068;2023-01-26T09:28:09;101148.13;;;3.28;99.95
69842;BME280;57138;51.326;-0.068;2023-01-26T09:30:34;101154.84;;;3.32;99.37
69842;BME280;57138;51.326;-0.068;2023-01-26T09:33:02;101161.09;;;3.31;99.86
69842;BME280;57138;51.326;-0.068;2023-01-26T09:35:28;101168.16;;;3.30;99.33
69842;BME280;57138;51.326;-0.068;2023-01-26T09:37:54;101169.75;;;3.33;99.72
69842;BME280;57138;51.326;-0.068;2023-01-26T09:40:36;101175.50;;;3.38;99.04
69842;BME280;57138;51.326;-0.068;2023-01-26T09:43:23;101157.47;;;3.32;99.32
69842;BME280;57138;51.326;-0.068;2023-01-26T09:46:18;101173.63;;;3.40;99.30
69842;BME280;57138;51.326;-0.068;2023-01-26T09:52:03;101177.09;;;3.40;99.60
69842;BME280;57138;51.326;-0.068;2023-01-26T09:54:35;101183.31;;;3.39;99.12
69842;BME280;57138;51.326;-0.068;2023-01-26T09:57:36;101172.50;;;3.31;99.61
69842;BME280;57138;51.326;-0.068;2023-01-26T10:00:09;101177.44;;;3.36;99.53
69842;BME280;57138;51.326;-0.068;2023-01-26T10:08:21;101169.03;;;3.31;100.00
69842;BME280;57138;51.326;-0.068;2023-01-26T10:11:18;101179.97;;;3.37;100.00
69842;BME280;57138;51.326;-0.068;2023-01-26T10:14:00;101183.22;;;3.41;100.00
69842;BME280;57138;51.326;-0.068;2023-01-26T10:16:27;101188.13;;;3.46;100.00
69842;BME280;57138;51.326;-0.068;2023-01-26T10:19:05;101190.78;;;3.46;100.00
69842;BME280;57138;51.326;-0.068;2023-01-26T10:21:39;101190.91;;;3.44;100.00
69842;BME280;57138;51.326;-0.068;2023-01-26T10:24:11;101177.91;;;3.41;100.00
69842;BME280;57138;51.326;-0.068;2023-01-26T10:26:38;101189.25;;;3.43;100.00
69842;BME280;57138;51.326;-0.068;2023-01-26T10:29:10;101207.88;;;3.53;100.00
69842;BME280;57138;51.326;-0.068;2023-01-26T10:31:37;101208.69;;;3.53;100.00
69842;BME280;57138;51.326;-0.068;2023-01-26T10:34:15;101204.88;;;3.57;100.00
69842;BME280;57138;51.326;-0.068;2023-01-26T10:36:45;101208.22;;;3.59;100.00
69842;BME280;57138;51.326;-0.068;2023-01-26T10:39:18;101214.25;;;3.62;100.00
69842;BME280;57138;51.326;-0.068;2023-01-26T10:41:56;101204.88;;;3.69;100.00
69842;BME280;57138;51.326;-0.068;2023-01-26T10:44:35;101204.88;;;3.69;100.00
69842;BME280;57138;51.326;-0.068;2023-01-26T10:47:15;101196.22;;;3.78;100.00
69842;BME280;57138;51.326;-0.068;2023-01-26T10:49:43;101185.16;;;3.73;100.00
69842;BME280;57138;51.326;-0.068;2023-01-26T10:52:23;101195.38;;;3.77;100.00
69842;BME280;57138;51.326;-0.068;2023-01-26T10:55:10;101204.03;;;3.91;100.00
69842;BME280;57138;51.326;-0.068;2023-01-26T10:57:38;101200.56;;;3.90;100.00
69842;BME280;57138;51.326;-0.068;2023-01-26T11:00:08;101207.75;;;4.00;100.00
69842;BME280;57138;51.326;-0.068;2023-01-26T11:03:05;101202.47;;;4.00;100.00
69842;BME280;57138;51.326;-0.068;2023-01-26T11:05:39;101199.81;;;4.00;100.00
69842;BME280;57138;51.326;-0.068;2023-01-26T11:08:34;101190.78;;;3.91;100.00
69842;BME280;57138;51.326;-0.068;2023-01-26T11:11:01;101190.69;;;3.92;100.00
69842;BME280;57138;51.326;-0.068;2023-01-26T11:13:29;101190.44;;;3.95;100.00
69842;BME280;57138;51.326;-0.068;2023-01-26T11:16:19;101194.78;;;3.96;100.00
69842;BME280;57138;51.326;-0.068;2023-01-26T11:21:24;101193.06;;;3.95;100.00
69842;BME280;57138;51.326;-0.068;2023-01-26T11:23:59;101196.09;;;3.91;100.00
69842;BME280;57138;51.326;-0.068;2023-01-26T11:37:41;101199.00;;;3.99;100.00
69842;BME280;57138;51.326;-0.068;2023-01-26T11:51:43;101191.28;;;3.96;100.00
69842;BME280;57138;51.326;-0.068;2023-01-26T11:57:38;101185.13;;;3.95;100.00
69842;BME280;57138;51.326;-0.068;2023-01-26T12:00:16;101173.38;;;3.88;100.00
69842;BME280;57138;51.326;-0.068;2023-01-26T12:02:50;101184.91;;;3.99;100.00
69842;BME280;57138;51.326;-0.068;2023-01-26T12:05:24;101166.16;;;3.90;100.00
69842;BME280;57138;51.326;-0.068;2023-01-26T12:08:03;101159.16;;;3.89;100.00
69842;BME280;57138;51.326;-0.068;2023-01-26T12:10:47;101169.63;;;4.02;100.00
69842;BME280;57138;51.326;-0.068;2023-01-26T12:13:35;101146.44;;;3.94;100.00
69842;BME280;57138;51.326;-0.068;2023-01-26T12:16:14;101169.75;;;4.12;100.00
69842;BME280;57138;51.326;-0.068;2023-01-26T12:18:53;101168.78;;;4.13;100.00
69842;BME280;57138;51.326;-0.068;2023-01-26T12:21:21;101168.03;;;4.11;100.00
69842;BME280;57138;51.326;-0.068;2023-01-26T12:24:02;101167.56;;;4.17;100.00
69842;BME280;57138;51.326;-0.068;2023-01-26T12:26:36;101166.59;;;4.18;100.00
69842;BME280;57138;51.326;-0.068;2023-01-26T12:31:42;101160.59;;;4.16;100.00
69842;BME280;57138;51.326;-0.068;2023-01-26T12:34:11;101158.53;;;4.20;100.00
69842;BME280;57138;51.326;-0.068;2023-01-26T12:37:10;101167.63;;;4.27;100.00
69842;BME280;57138;51.326;-0.068;2023-01-26T12:39:53;101148.31;;;4.15;100.00
69842;BME280;57138;51.326;-0.068;2023-01-26T12:42:41;101156.47;;;4.23;100.00
69842;BME280;57138;51.326;-0.068;2023-01-26T12:45:24;101146.84;;;4.22;100.00
69842;BME280;57138;51.326;-0.068;2023-01-26T12:50:44;101163.16;;;4.39;100.00
69842;BME280;57138;51.326;-0.068;2023-01-26T12:55:53;101169.78;;;4.44;100.00
69842;BME280;57138;51.326;-0.068;2023-01-26T12:58:47;101167.72;;;4.48;100.00
69842;BME280;57138;51.326;-0.068;2023-01-26T13:01:23;101164.56;;;4.54;100.00
69842;BME280;57138;51.326;-0.068;2023-01-26T13:03:58;101140.53;;;4.46;100.00
69842;BME280;57138;51.326;-0.068;2023-01-26T13:06:28;101135.69;;;4.51;100.00
69842;BME280;57138;51.326;-0.068;2023-01-26T13:11:43;101159.44;;;4.74;100.00
69842;BME280;57138;51.326;-0.068;2023-01-26T13:14:25;101151.94;;;4.79;100.00
69842;BME280;57138;51.326;-0.068;2023-01-26T13:16:51;101145.53;;;4.81;100.00
69842;BME280;57138;51.326;-0.068;2023-01-26T13:21:59;101153.84;;;4.88;99.53
69842;BME280;57138;51.326;-0.068;2023-01-26T13:26:59;101143.41;;;4.96;99.60
69842;BME280;57138;51.326;-0.068;2023-01-26T13:32:00;101135.91;;;5.01;99.12
69842;BME280;57138;51.326;-0.068;2023-01-26T13:34:49;101151.03;;;5.11;99.26
69842;BME280;57138;51.326;-0.068;2023-01-26T13:40:14;101140.69;;;5.08;98.40
69842;BME280;57138;51.326;-0.068;2023-01-26T13:45:42;101159.19;;;5.19;97.67
69842;BME280;57138;51.326;-0.068;2023-01-26T13:48:17;101124.09;;;5.06;97.03
69842;BME280;57138;51.326;-0.068;2023-01-26T13:50:49;101144.97;;;5.20;97.23
69842;BME280;57138;51.326;-0.068;2023-01-26T13:53:32;101148.47;;;5.20;95.77
69842;BME280;57138;51.326;-0.068;2023-01-26T13:55:59;101125.25;;;5.13;98.02
69842;BME280;57138;51.326;-0.068;2023-01-26T13:58:27;101143.47;;;5.27;98.31
69842;BME280;57138;51.326;-0.068;2023-01-26T14:01:01;101138.88;;;5.29;98.36
69842;BME280;57138;51.326;-0.068;2023-01-26T14:03:27;101150.16;;;5.31;97.90
69842;BME280;57138;51.326;-0.068;2023-01-26T14:05:59;101145.88;;;5.30;98.47